Time;durP1;ratioP1;P1;durP2;ratioP2;P2;SDS_P1;SDS_P2;PMS_P1;PMS_P2;Temp;Humidity;BMP_temperature;BMP_pressure;BME280_temperature;BME280_humidity;BME280_pressure;Samples;Min_cycle;Max_cycle;Signal;HPM_P1;HPM_P2
2022/07/12 00:02:19;;;;;;;0.85;0.85;;;24.30;52.70;;;;;;4940301;28;20054;-77
2022/07/12 00:04:45;;;;;;;1.08;0.98;;;24.20;52.60;;;;;;4943821;28;20110;-76
2022/07/12 00:07:11;;;;;;;1.58;0.90;;;24.20;52.70;;;;;;4942623;28;20042;-77
2022/07/12 00:09:37;;;;;;;3.05;1.38;;;24.20;52.80;;;;;;4941047;28;20508;-76
2022/07/12 00:12:04;;;;;;;1.17;1.08;;;24.10;52.70;;;;;;4940388;28;20488;-76
2022/07/12 00:14:30;;;;;;;1.13;1.02;;;24.20;53.00;;;;;;4928691;28;20031;-76
2022/07/12 00:16:56;;;;;;;1.17;1.05;;;24.10;52.90;;;;;;4941571;28;20541;-76
2022/07/12 00:19:23;;;;;;;2.50;0.85;;;24.10;53.00;;;;;;4942390;28;20027;-77
2022/07/12 00:21:49;;;;;;;1.45;0.75;;;24.00;52.90;;;;;;4929041;28;20042;-76
2022/07/12 00:24:15;;;;;;;1.10;0.93;;;24.00;53.00;;;;;;4943288;28;20054;-77
2022/07/12 00:26:41;;;;;;;2.15;1.17;;;24.00;53.10;;;;;;4943255;28;20116;-76
2022/07/12 00:29:07;;;;;;;1.75;1.05;;;23.90;53.00;;;;;;4942382;28;20134;-76
2022/07/12 00:31:33;;;;;;;1.10;1.00;;;23.90;53.20;;;;;;4925649;28;20114;-76
2022/07/12 00:34:00;;;;;;;2.10;0.93;;;23.90;53.30;;;;;;4940879;28;20034;-77
2022/07/12 00:36:26;;;;;;;1.85;0.95;;;23.80;53.20;;;;;;4937706;28;20031;-76
2022/07/12 00:38:52;;;;;;;1.45;1.00;;;23.80;53.30;;;;;;4937467;28;20531;-76
2022/07/12 00:41:19;;;;;;;3.28;0.85;;;23.80;53.40;;;;;;4941028;28;20032;-75
2022/07/12 00:43:45;;;;;;;1.55;1.35;;;23.70;53.40;;;;;;4941495;28;20079;-75
2022/07/12 00:46:11;;;;;;;1.08;0.90;;;23.70;53.50;;;;;;4943735;28;20547;-74
2022/07/12 00:48:37;;;;;;;2.45;1.45;;;23.70;53.60;;;;;;4940884;28;20584;-75
2022/07/12 00:51:03;;;;;;;1.50;0.73;;;23.60;53.40;;;;;;4924908;28;20077;-77
2022/07/12 00:53:29;;;;;;;1.80;0.77;;;23.60;53.60;;;;;;4942750;28;20042;-77
2022/07/12 00:55:56;;;;;;;1.08;1.00;;;23.50;53.50;;;;;;4922950;28;20027;-76
2022/07/12 00:58:24;;;;;;;1.52;0.80;;;23.50;53.60;;;;;;4924284;28;20617;-77
2022/07/12 01:00:50;;;;;;;1.27;1.00;;;23.50;53.70;;;;;;4937891;28;20032;-76
2022/07/12 01:03:17;;;;;;;0.70;0.70;;;23.50;53.80;;;;;;4950805;28;20513;-77
2022/07/12 01:05:44;;;;;;;3.08;1.10;;;23.40;53.70;;;;;;4941151;28;20118;-81
2022/07/12 01:08:11;;;;;;;1.50;1.00;;;23.40;53.90;;;;;;4924759;28;20044;-76
2022/07/12 01:10:40;;;;;;;1.33;1.10;;;23.30;53.70;;;;;;4922089;28;20584;-75
2022/07/12 01:13:06;;;;;;;1.65;1.00;;;23.30;53.80;;;;;;4941443;28;20256;-75
2022/07/12 01:15:33;;;;;;;1.00;0.85;;;23.30;53.90;;;;;;4941101;28;20034;-76
2022/07/12 01:18:00;;;;;;;1.27;1.00;;;23.30;54.00;;;;;;4941257;28;20508;-77
2022/07/12 01:20:27;;;;;;;1.08;0.98;;;23.20;53.90;;;;;;4923115;29;20047;-75
2022/07/12 01:22:54;;;;;;;1.67;1.00;;;23.20;53.90;;;;;;4952323;28;20043;-76
2022/07/12 01:25:20;;;;;;;1.30;1.00;;;23.20;54.10;;;;;;4944085;28;20381;-76
2022/07/12 01:27:46;;;;;;;4.53;1.40;;;23.10;54.00;;;;;;4938666;28;20043;-77
2022/07/12 01:30:12;;;;;;;2.00;1.23;;;23.10;54.00;;;;;;4941509;28;20035;-76
2022/07/12 01:32:39;;;;;;;2.15;1.00;;;23.10;54.10;;;;;;4941265;28;20046;-76
2022/07/12 01:35:06;;;;;;;3.95;1.20;;;23.00;54.00;;;;;;4942554;28;20661;-77
2022/07/12 01:37:37;;;;;;;1.33;0.90;;;23.00;54.10;;;;;;4941809;28;20090;-76
2022/07/12 01:40:06;;;;;;;1.65;1.30;;;22.90;54.10;;;;;;4953216;28;20266;-76
2022/07/12 01:42:32;;;;;;;1.45;1.00;;;22.90;54.10;;;;;;4940580;28;20043;-76
2022/07/12 01:44:58;;;;;;;0.90;0.90;;;22.90;54.20;;;;;;4937001;28;20034;-77
2022/07/12 01:47:27;;;;;;;1.10;1.00;;;22.90;54.30;;;;;;4928730;28;20501;-76
2022/07/12 01:49:53;;;;;;;1.23;0.98;;;22.80;54.20;;;;;;4946730;28;20039;-76
2022/07/12 01:52:19;;;;;;;3.03;1.98;;;22.80;54.30;;;;;;4952119;28;20031;-75
2022/07/12 01:54:46;;;;;;;2.05;1.33;;;22.80;54.40;;;;;;4943807;28;20030;-78
2022/07/12 01:57:12;;;;;;;1.70;1.13;;;22.70;54.20;;;;;;4943651;28;20046;-76
2022/07/12 01:59:40;;;;;;;2.50;1.00;;;22.80;54.50;;;;;;4928330;28;20446;-76
2022/07/12 02:02:07;;;;;;;1.35;0.90;;;22.70;54.40;;;;;;4944863;28;20162;-77
2022/07/12 02:04:34;;;;;;;1.00;0.90;;;22.70;54.40;;;;;;4942549;28;20561;-75
2022/07/12 02:07:00;;;;;;;2.60;1.20;;;22.70;54.60;;;;;;4943998;28;20027;-76
2022/07/12 02:09:26;;;;;;;1.15;0.95;;;22.70;54.60;;;;;;4944388;28;20383;-76
2022/07/12 02:11:54;;;;;;;1.63;0.90;;;22.70;54.60;;;;;;4943958;28;20083;-75
2022/07/12 02:14:20;;;;;;;1.38;0.90;;;22.70;54.60;;;;;;4925126;28;20023;-75
2022/07/12 02:16:47;;;;;;;1.77;1.00;;;22.70;54.70;;;;;;4928808;28;20071;-75
2022/07/12 02:19:14;;;;;;;1.70;0.90;;;22.70;54.80;;;;;;4946953;28;20286;-76
2022/07/12 02:21:40;;;;;;;0.95;0.82;;;22.70;54.80;;;;;;4944262;28;20043;-76
2022/07/12 02:24:07;;;;;;;1.40;1.10;;;22.70;54.80;;;;;;4926295;28;20031;-75
2022/07/12 02:26:34;;;;;;;3.17;1.10;;;22.60;54.60;;;;;;4943418;28;20035;-76
2022/07/12 02:29:01;;;;;;;1.73;0.82;;;22.60;54.70;;;;;;4949125;28;20132;-76
2022/07/12 02:31:27;;;;;;;1.50;0.88;;;22.60;54.70;;;;;;4946405;28;20117;-76
2022/07/12 02:33:53;;;;;;;0.80;0.80;;;22.60;54.70;;;;;;4947213;28;20038;-77
2022/07/12 02:36:19;;;;;;;1.98;0.90;;;22.60;54.70;;;;;;4929029;28;20019;-76
2022/07/12 02:38:45;;;;;;;1.50;0.90;;;22.50;54.60;;;;;;4930128;29;20047;-76
2022/07/12 02:41:12;;;;;;;1.45;0.90;;;22.50;55.20;;;;;;4929899;29;20028;-76
2022/07/12 02:43:38;;;;;;;1.48;1.20;;;22.50;54.70;;;;;;4927101;29;20071;-75
2022/07/12 02:46:08;;;;;;;1.65;1.08;;;22.50;54.70;;;;;;4930037;29;20482;-78
2022/07/12 02:48:35;;;;;;;3.15;1.13;;;22.40;54.60;;;;;;4924643;29;20058;-76
2022/07/12 02:51:01;;;;;;;0.95;0.85;;;22.40;54.60;;;;;;4929275;29;20031;-74
2022/07/12 02:53:28;;;;;;;1.38;1.08;;;22.40;54.80;;;;;;4929810;29;20038;-76
2022/07/12 02:55:54;;;;;;;1.10;1.00;;;22.30;54.60;;;;;;4927286;29;20563;-76
2022/07/12 02:58:20;;;;;;;1.23;0.90;;;22.30;54.70;;;;;;4929423;29;20076;-75
2022/07/12 03:00:46;;;;;;;2.03;0.80;;;22.30;54.80;;;;;;4928978;29;20032;-75
2022/07/12 03:03:13;;;;;;;1.08;1.05;;;22.20;54.70;;;;;;4925511;29;20569;-75
2022/07/12 03:05:39;;;;;;;1.98;1.27;;;22.20;54.80;;;;;;4926916;29;20599;-75
2022/07/12 03:08:06;;;;;;;2.42;1.05;;;22.20;54.90;;;;;;4926659;29;20478;-76
2022/07/12 03:10:33;;;;;;;2.00;1.00;;;22.10;54.90;;;;;;4931058;29;20090;-76
2022/07/12 03:12:59;;;;;;;0.98;0.77;;;22.10;54.90;;;;;;4923324;29;20031;-75
2022/07/12 03:15:25;;;;;;;1.35;0.75;;;22.10;55.10;;;;;;4927241;29;20028;-75
2022/07/12 03:17:50;;;;;;;2.15;0.90;;;22.00;54.90;;;;;;4926984;29;20039;-76
2022/07/12 03:20:17;;;;;;;0.90;0.85;;;22.00;55.00;;;;;;4926758;29;20036;-76
2022/07/12 03:22:46;;;;;;;1.65;1.08;;;22.00;55.60;;;;;;4930365;29;20048;-76
2022/07/12 03:25:12;;;;;;;1.00;0.90;;;22.00;55.10;;;;;;4926879;29;20510;-77
2022/07/12 03:27:39;;;;;;;5.25;1.73;;;22.00;55.20;;;;;;4926788;29;20211;-77
2022/07/12 03:30:06;;;;;;;1.40;1.13;;;21.90;55.10;;;;;;4926185;29;20958;-77
2022/07/12 03:32:32;;;;;;;1.83;0.90;;;21.90;55.10;;;;;;4933455;29;20027;-76
2022/07/12 03:34:58;;;;;;;1.75;0.82;;;21.90;55.10;;;;;;4934869;28;20521;-76
2022/07/12 03:37:24;;;;;;;1.98;1.15;;;21.90;55.10;;;;;;4940074;28;20069;-76
2022/07/12 03:39:50;;;;;;;1.70;1.08;;;21.90;55.10;;;;;;4957146;28;20521;-76
2022/07/12 03:42:16;;;;;;;2.25;0.80;;;21.90;55.20;;;;;;4963641;28;20209;-75
2022/07/12 03:44:42;;;;;;;1.20;0.90;;;21.90;55.20;;;;;;4961233;28;20035;-76
2022/07/12 03:47:08;;;;;;;1.63;1.17;;;21.90;55.20;;;;;;4963238;28;20075;-76
2022/07/12 03:49:34;;;;;;;1.60;0.80;;;21.90;55.20;;;;;;4958275;28;20023;-77
2022/07/12 03:52:00;;;;;;;0.85;0.85;;;21.90;55.20;;;;;;4969105;28;20023;-76
2022/07/12 03:54:26;;;;;;;1.30;1.20;;;21.90;55.20;;;;;;4954192;28;20031;-75
2022/07/12 03:59:36;;;;;;;1.10;1.00;;;21.90;55.30;;;;;;4948396;28;20034;-76
2022/07/12 04:02:02;;;;;;;1.63;1.00;;;21.80;55.10;;;;;;4935319;28;20567;-76
2022/07/12 04:04:28;;;;;;;1.02;0.60;;;21.90;55.30;;;;;;4946210;28;20039;-76
2022/07/12 04:06:54;;;;;;;1.58;0.88;;;21.80;55.20;;;;;;4947630;28;20055;-75
2022/07/12 04:09:21;;;;;;;2.65;1.17;;;21.90;55.40;;;;;;4950511;28;20086;-76
2022/07/12 04:11:47;;;;;;;5.28;1.45;;;21.80;55.30;;;;;;4949458;28;20035;-77
2022/07/12 04:14:13;;;;;;;1.40;1.20;;;21.80;55.40;;;;;;4927749;28;20023;-75
2022/07/12 04:16:39;;;;;;;2.17;0.88;;;21.80;55.50;;;;;;4945048;28;20188;-77
2022/07/12 04:19:05;;;;;;;2.88;1.25;;;21.70;55.40;;;;;;4947789;28;20042;-77
2022/07/12 04:21:31;;;;;;;1.88;0.80;;;21.80;55.60;;;;;;4946358;28;20047;-77
2022/07/12 04:23:57;;;;;;;3.15;1.27;;;21.80;55.70;;;;;;4947138;28;20030;-75
2022/07/12 04:26:23;;;;;;;1.55;1.17;;;21.70;55.60;;;;;;4942591;28;20032;-77
2022/07/12 04:28:49;;;;;;;1.45;0.80;;;21.70;55.60;;;;;;4944719;28;20032;-77
2022/07/12 04:31:15;;;;;;;1.35;1.20;;;21.70;55.70;;;;;;4927905;28;20031;-76
2022/07/12 04:33:41;;;;;;;2.25;1.08;;;21.70;55.70;;;;;;4929932;28;20058;-77
2022/07/12 04:36:07;;;;;;;2.33;0.90;;;21.70;55.70;;;;;;4945645;28;20035;-78
2022/07/12 04:38:33;;;;;;;0.70;0.70;;;21.70;55.80;;;;;;4948733;28;20039;-76
2022/07/12 04:40:58;;;;;;;1.15;0.90;;;21.70;55.80;;;;;;4969116;28;20400;-76
2022/07/12 04:43:25;;;;;;;1.48;0.95;;;21.70;55.80;;;;;;4945845;28;20061;-77
2022/07/12 04:45:51;;;;;;;2.50;1.10;;;21.70;55.80;;;;;;4946054;28;20038;-76
2022/07/12 04:48:17;;;;;;;1.85;1.17;;;21.70;55.80;;;;;;4943212;28;20170;-76
2022/07/12 04:50:43;;;;;;;1.23;0.90;;;21.70;55.80;;;;;;4953113;28;20037;-76
2022/07/12 04:53:09;;;;;;;1.85;0.95;;;21.70;55.90;;;;;;4946323;28;20043;-76
2022/07/12 04:55:36;;;;;;;1.30;1.10;;;21.70;55.90;;;;;;4939796;28;20035;-76
2022/07/12 04:58:02;;;;;;;1.10;1.00;;;21.70;55.90;;;;;;4940476;28;20039;-76
2022/07/12 05:00:28;;;;;;;2.13;0.88;;;21.70;56.00;;;;;;4942646;28;20030;-75
2022/07/12 05:02:54;;;;;;;2.95;1.42;;;21.70;55.90;;;;;;4942284;28;20042;-76
2022/07/12 05:05:20;;;;;;;1.05;0.80;;;21.70;55.90;;;;;;4939425;28;20031;-75
2022/07/12 05:07:46;;;;;;;2.45;0.90;;;21.70;55.90;;;;;;4942897;28;20125;-78
2022/07/12 05:10:12;;;;;;;2.10;1.02;;;21.70;55.90;;;;;;4920858;29;20508;-76
2022/07/12 05:12:38;;;;;;;2.30;1.10;;;21.70;55.90;;;;;;4939217;28;20524;-76
2022/07/12 05:15:05;;;;;;;1.63;1.02;;;21.70;55.90;;;;;;4940347;28;20027;-76
2022/07/12 05:17:31;;;;;;;1.15;1.00;;;21.80;56.00;;;;;;4941266;28;20027;-75
2022/07/12 05:19:57;;;;;;;0.93;0.80;;;21.80;55.90;;;;;;4924594;28;20028;-76
2022/07/12 05:22:23;;;;;;;1.85;1.25;;;21.80;55.90;;;;;;4924564;28;20042;-77
2022/07/12 05:24:49;;;;;;;1.20;1.10;;;21.90;56.70;;;;;;4923120;28;20069;-76
2022/07/12 05:27:15;;;;;;;1.40;0.90;;;21.90;55.90;;;;;;4924448;28;20044;-78
2022/07/12 05:29:41;;;;;;;1.35;0.90;;;22.00;56.00;;;;;;4923219;28;20032;-76
2022/07/12 05:32:08;;;;;;;2.50;1.00;;;22.00;56.00;;;;;;4940683;28;20105;-77
2022/07/12 05:34:34;;;;;;;2.08;1.02;;;22.10;56.10;;;;;;4941155;28;20031;-77
2022/07/12 05:36:59;;;;;;;3.08;1.08;;;22.20;56.20;;;;;;4924355;28;20569;-78
2022/07/12 05:39:25;;;;;;;1.50;1.13;;;22.20;56.10;;;;;;4924768;28;20063;-76
2022/07/12 05:41:51;;;;;;;1.15;1.05;;;22.30;56.10;;;;;;4942492;28;20043;-76
2022/07/12 05:44:18;;;;;;;1.25;0.95;;;22.40;56.20;;;;;;4941842;28;20035;-76
2022/07/12 05:46:46;;;;;;;1.75;0.70;;;22.50;56.30;;;;;;4945109;28;20027;-77
2022/07/12 05:49:12;;;;;;;1.65;1.27;;;22.50;56.10;;;;;;4922743;28;20496;-76
2022/07/12 05:54:22;;;;;;;1.25;1.00;;;22.70;56.20;;;;;;4941106;28;20042;-76
2022/07/12 05:56:49;;;;;;;1.13;0.93;;;22.70;56.00;;;;;;4943110;28;20120;-76
2022/07/12 05:59:15;;;;;;;1.48;1.00;;;22.80;56.10;;;;;;4945504;28;20490;-77
2022/07/12 06:01:41;;;;;;;1.60;1.40;;;22.90;56.20;;;;;;4941034;28;20027;-76
2022/07/12 06:04:07;;;;;;;1.60;1.10;;;22.90;56.20;;;;;;4945904;28;20046;-77
2022/07/12 06:06:33;;;;;;;4.10;1.50;;;23.00;56.30;;;;;;4942234;28;20031;-79
2022/07/12 06:09:00;;;;;;;0.95;0.88;;;23.00;56.30;;;;;;4918182;28;20036;-78
2022/07/12 06:11:27;;;;;;;7.05;1.35;;;23.00;56.20;;;;;;4940077;28;20464;-78
2022/07/12 06:13:53;;;;;;;1.10;1.00;;;23.10;56.40;;;;;;4938592;28;20143;-77
2022/07/12 06:16:20;;;;;;;4.30;1.35;;;23.10;56.40;;;;;;4939386;28;20057;-77
2022/07/12 06:18:46;;;;;;;1.50;1.10;;;23.10;56.40;;;;;;4919801;28;20079;-77
2022/07/12 06:21:12;;;;;;;1.48;0.88;;;23.20;56.40;;;;;;4940288;28;20086;-80
2022/07/12 06:23:38;;;;;;;1.05;0.98;;;23.20;56.40;;;;;;4942105;28;20051;-78
2022/07/12 06:26:04;;;;;;;1.15;1.05;;;23.30;56.40;;;;;;4941020;28;20028;-79
2022/07/12 06:28:29;;;;;;;2.08;1.20;;;23.30;56.30;;;;;;4945038;28;20421;-77
2022/07/12 06:30:55;;;;;;;2.10;1.23;;;23.40;56.50;;;;;;4924626;28;20493;-77
2022/07/12 06:33:21;;;;;;;1.42;1.08;;;23.50;56.70;;;;;;4940226;28;20339;-79
2022/07/12 06:35:47;;;;;;;1.42;0.90;;;23.50;56.70;;;;;;4923503;28;20046;-76
2022/07/12 06:38:13;;;;;;;2.15;1.45;;;23.60;57.50;;;;;;4946239;28;20058;-76
2022/07/12 06:40:39;;;;;;;2.63;1.08;;;23.70;57.10;;;;;;4923988;28;20031;-77
2022/07/12 06:43:12;;;;;;;1.50;1.40;;;23.70;57.10;;;;;;4940615;28;20655;-80
2022/07/12 06:45:39;;;;;;;4.38;1.20;;;23.80;57.20;;;;;;4942484;28;20027;-77
2022/07/12 06:48:06;;;;;;;1.40;1.23;;;24.00;57.30;;;;;;4940710;28;20496;-74
2022/07/12 06:50:33;;;;;;;1.40;1.30;;;24.10;57.20;;;;;;4930547;28;20037;-77
2022/07/12 06:52:59;;;;;;;2.53;1.20;;;24.40;57.40;;;;;;4945158;28;20410;-78
2022/07/12 06:55:26;;;;;;;2.80;1.10;;;24.70;57.10;;;;;;4941100;28;20062;-79
2022/07/12 06:57:52;;;;;;;1.58;1.45;;;25.10;56.80;;;;;;4922026;28;20456;-78
2022/07/12 07:00:18;;;;;;;3.03;1.17;;;25.60;56.00;;;;;;4938569;28;20555;-80
2022/07/12 07:02:44;;;;;;;1.95;1.50;;;26.10;55.10;;;;;;4938974;28;20139;-81
2022/07/12 07:05:11;;;;;;;1.60;1.25;;;26.70;54.20;;;;;;4937947;28;20070;-79
2022/07/12 07:07:36;;;;;;;2.35;0.98;;;27.40;53.10;;;;;;4942154;28;20232;-80
2022/07/12 07:10:03;;;;;;;1.40;1.30;;;28.10;51.90;;;;;;4939946;28;20500;-79
2022/07/12 07:12:29;;;;;;;2.28;1.80;;;28.30;51.40;;;;;;4935781;28;20469;-79
2022/07/12 07:14:55;;;;;;;5.72;1.15;;;28.40;50.10;;;;;;4940936;28;20032;-79
2022/07/12 07:17:21;;;;;;;1.67;1.00;;;28.40;49.80;;;;;;4943452;28;20031;-79
2022/07/12 07:19:47;;;;;;;2.10;1.23;;;28.30;49.70;;;;;;4943600;28;20031;-79
2022/07/12 07:22:13;;;;;;;2.00;1.00;;;28.40;49.60;;;;;;4947684;28;20039;-80
2022/07/12 07:24:40;;;;;;;2.83;1.08;;;28.60;49.10;;;;;;4929336;28;20381;-78
2022/07/12 07:27:07;;;;;;;2.00;1.00;;;28.60;48.60;;;;;;4943316;28;20182;-79
2022/07/12 07:32:19;;;;;;;3.17;1.15;;;28.30;48.70;;;;;;4943348;28;20126;-81
2022/07/12 07:34:46;;;;;;;4.63;1.20;;;28.20;49.00;;;;;;4942305;28;20700;-78
2022/07/12 07:37:13;;;;;;;2.70;1.23;;;28.10;49.00;;;;;;4943242;28;20031;-77
2022/07/12 07:39:39;;;;;;;2.83;1.13;;;28.00;48.80;;;;;;4943883;28;20050;-78
2022/07/12 07:42:05;;;;;;;1.48;1.00;;;27.90;48.80;;;;;;4943777;28;20738;-79
2022/07/12 07:44:31;;;;;;;1.50;1.23;;;27.80;48.90;;;;;;4939175;28;20115;-79
2022/07/12 07:46:57;;;;;;;2.00;1.00;;;27.70;48.90;;;;;;4943394;28;20033;-80
2022/07/12 07:49:23;;;;;;;2.85;1.05;;;27.60;49.10;;;;;;4940714;28;20027;-78
2022/07/12 07:51:49;;;;;;;2.55;0.98;;;27.50;49.20;;;;;;4957492;28;20035;-78
2022/07/12 07:54:16;;;;;;;3.63;1.27;;;27.50;49.20;;;;;;4948211;28;20086;-79
2022/07/12 07:56:43;;;;;;;1.88;1.15;;;27.50;49.20;;;;;;4941974;28;20446;-79
2022/07/12 07:59:09;;;;;;;5.68;1.52;;;27.60;49.10;;;;;;4925817;29;20038;-78
2022/07/12 08:01:52;;;;;;;5.85;1.63;;;27.80;48.80;;;;;;4943453;28;20118;-79
2022/07/12 08:04:20;;;;;;;3.17;0.90;;;27.90;48.30;;;;;;4954394;28;20043;-80
2022/07/12 08:06:46;;;;;;;4.70;1.00;;;27.90;48.20;;;;;;4942234;28;20111;-79
2022/07/12 08:09:13;;;;;;;1.90;1.08;;;27.80;48.20;;;;;;4926401;28;20138;-79
2022/07/12 08:11:41;;;;;;;1.10;1.00;;;27.70;48.10;;;;;;4941192;28;20035;-76
2022/07/12 08:14:08;;;;;;;1.90;1.27;;;27.70;48.10;;;;;;4939361;28;20714;-78
2022/07/12 08:16:35;;;;;;;1.08;0.95;;;27.60;48.20;;;;;;4941257;28;20062;-77
2022/07/12 08:19:02;;;;;;;0.90;0.80;;;27.50;48.20;;;;;;4925890;29;20195;-78
2022/07/12 08:21:28;;;;;;;1.88;1.10;;;27.50;48.20;;;;;;4924652;28;20509;-78
2022/07/12 08:23:55;;;;;;;3.53;1.10;;;27.50;48.10;;;;;;4925098;28;20039;-75
2022/07/12 08:26:21;;;;;;;4.35;1.35;;;27.60;48.00;;;;;;4939003;28;20106;-79
2022/07/12 08:28:47;;;;;;;2.97;0.90;;;27.80;47.90;;;;;;4924238;28;20033;-80
2022/07/12 08:31:14;;;;;;;2.85;1.00;;;28.10;47.90;;;;;;4942230;28;20027;-78
2022/07/12 08:33:41;;;;;;;1.50;0.98;;;28.50;47.80;;;;;;4946332;28;20493;-78
2022/07/12 08:36:08;;;;;;;6.00;1.10;;;28.80;47.70;;;;;;4941335;28;20085;-80
2022/07/12 08:38:36;;;;;;;2.28;1.10;;;29.10;47.70;;;;;;4940496;28;20047;-78
2022/07/12 08:41:06;;;;;;;4.50;1.30;;;29.20;47.60;;;;;;4944750;28;20175;-80
2022/07/12 08:43:34;;;;;;;4.07;1.17;;;29.40;47.60;;;;;;4941794;28;20500;-78
2022/07/12 08:46:08;;;;;;;7.30;2.10;;;29.50;47.50;;;;;;4954123;28;20031;-78
2022/07/12 08:48:35;;;;;;;5.25;1.63;;;29.70;47.40;;;;;;4955928;28;20041;-77
2022/07/12 08:51:03;;;;;;;5.50;1.63;;;29.80;47.30;;;;;;4953311;28;20580;-78
2022/07/12 08:53:30;;;;;;;5.55;1.75;;;29.80;47.20;;;;;;4960785;28;20864;-77
2022/07/12 08:55:56;;;;;;;5.13;1.55;;;29.90;47.20;;;;;;4944242;28;20039;-78
2022/07/12 08:58:22;;;;;;;4.07;1.20;;;29.90;47.10;;;;;;4948002;28;20975;-76
2022/07/12 09:00:48;;;;;;;4.72;1.63;;;30.00;47.10;;;;;;4964219;28;20034;-77
2022/07/12 09:03:14;;;;;;;3.38;1.27;;;30.10;47.10;;;;;;4962340;28;20039;-78
2022/07/12 09:05:49;;;;;;;1.65;1.00;;;30.10;46.90;;;;;;4948961;28;20027;-78
2022/07/12 09:08:15;;;;;;;5.43;1.20;;;30.20;46.80;;;;;;4946744;28;20038;-77
2022/07/12 09:11:02;;;;;;;4.45;1.30;;;30.20;46.70;;;;;;4930905;28;20035;-77
2022/07/12 09:13:48;;;;;;;4.75;1.15;;;30.20;46.50;;;;;;4941391;28;20151;-76
2022/07/12 09:16:16;;;;;;;2.00;1.13;;;30.20;46.50;;;;;;4957827;28;20110;-77
2022/07/12 09:18:43;;;;;;;3.50;1.50;;;30.10;46.50;;;;;;4943998;28;20038;-77
2022/07/12 09:21:10;;;;;;;5.65;1.02;;;30.10;46.50;;;;;;4943447;28;20123;-76
2022/07/12 09:23:35;;;;;;;3.15;1.15;;;30.10;46.40;;;;;;4956646;28;20071;-77
2022/07/12 09:26:08;;;;;;;3.28;1.10;;;30.20;46.40;;;;;;4943985;28;20450;-77
2022/07/12 09:28:34;;;;;;;2.20;0.88;;;30.30;46.30;;;;;;4944179;28;20137;-77
2022/07/12 09:31:00;;;;;;;2.83;1.13;;;30.40;46.20;;;;;;4944304;28;20385;-78
2022/07/12 09:36:12;;;;;;;1.33;0.80;;;30.90;45.80;;;;;;4943865;28;20055;-78
2022/07/12 09:38:54;;;;;;;2.90;0.95;;;31.10;45.30;;;;;;4928178;28;20047;-76
2022/07/12 09:41:21;;;;;;;1.13;1.02;;;31.30;44.90;;;;;;4942344;28;20035;-76
2022/07/12 09:43:48;;;;;;;1.30;0.93;;;31.50;44.80;;;;;;4942381;28;20369;-77
2022/07/12 09:46:16;;;;;;;2.03;0.88;;;31.60;44.50;;;;;;4947140;28;20023;-77
2022/07/12 09:48:44;;;;;;;1.48;0.80;;;31.60;44.40;;;;;;4943229;28;20035;-75
2022/07/12 09:51:13;;;;;;;1.90;1.05;;;31.60;44.30;;;;;;4925405;28;20062;-77
2022/07/12 09:53:47;;;;;;;2.85;1.10;;;31.60;44.20;;;;;;4945178;28;20030;-79
2022/07/12 09:56:15;;;;;;;1.00;0.90;;;31.70;44.20;;;;;;4941408;28;20023;-78
2022/07/12 09:58:55;;;;;;;1.00;0.70;;;31.70;44.20;;;;;;4935699;28;20058;-76
2022/07/12 10:01:23;;;;;;;1.30;1.00;;;31.70;44.10;;;;;;4942944;28;20035;-76
2022/07/12 10:03:51;;;;;;;1.27;0.85;;;31.80;44.10;;;;;;4922777;28;20073;-76
2022/07/12 10:06:28;;;;;;;0.90;0.75;;;31.90;43.90;;;;;;4955006;28;20039;-76
2022/07/12 10:08:55;;;;;;;1.98;0.95;;;32.10;43.70;;;;;;4924269;28;20656;-78
2022/07/12 10:11:25;;;;;;;3.40;1.00;;;32.20;43.50;;;;;;4918657;28;20393;-79
2022/07/12 10:13:53;;;;;;;0.75;0.68;;;32.20;43.30;;;;;;4944466;28;20110;-78
2022/07/12 10:16:26;;;;;;;1.60;0.88;;;32.30;43.30;;;;;;4914028;28;20031;-76
2022/07/12 10:19:24;;;;;;;1.75;0.77;;;32.20;43.20;;;;;;4936126;28;20023;-76
2022/07/12 10:21:53;;;;;;;1.50;0.80;;;32.10;43.30;;;;;;4939780;28;20046;-77
2022/07/12 10:24:30;;;;;;;1.27;1.00;;;32.00;43.40;;;;;;4937758;28;20035;-76
2022/07/12 10:27:15;;;;;;;1.25;0.65;;;31.90;43.30;;;;;;4951543;28;20042;-77
2022/07/12 10:29:46;;;;;;;1.20;0.75;;;31.90;43.40;;;;;;4940356;28;20028;-77
2022/07/12 10:32:34;;;;;;;2.10;0.75;;;32.00;43.50;;;;;;4939640;28;20038;-77
2022/07/12 10:35:06;;;;;;;1.10;1.00;;;32.10;43.50;;;;;;4924834;28;20424;-76
2022/07/12 10:37:33;;;;;;;2.15;1.15;;;32.20;43.40;;;;;;4945031;28;20558;-76
2022/07/12 10:40:14;;;;;;;1.50;0.80;;;32.30;43.30;;;;;;4940553;28;20023;-77
2022/07/12 10:43:01;;;;;;;1.70;0.80;;;32.50;43.20;;;;;;4938542;28;20173;-77
2022/07/12 10:45:40;;;;;;;1.55;1.05;;;32.60;43.20;;;;;;4944135;28;20043;-77
2022/07/12 10:48:12;;;;;;;1.75;0.80;;;32.80;43.00;;;;;;4945400;28;20042;-78
2022/07/12 10:50:44;;;;;;;4.15;1.10;;;32.90;42.90;;;;;;4948802;28;20118;-76
2022/07/12 10:53:22;;;;;;;1.25;1.15;;;33.10;42.90;;;;;;4960273;28;20027;-76
2022/07/12 10:56:14;;;;;;;1.40;0.80;;;33.30;42.70;;;;;;4947653;28;20488;-76
2022/07/12 10:58:49;;;;;;;2.72;1.65;;;33.50;42.50;;;;;;4943744;28;20086;-77
2022/07/12 11:01:18;;;;;;;0.82;0.73;;;33.70;42.40;;;;;;4948902;28;20149;-76
2022/07/12 11:03:49;;;;;;;1.45;0.95;;;33.80;42.30;;;;;;4947650;28;20122;-75
2022/07/12 11:06:18;;;;;;;1.73;1.10;;;34.00;42.20;;;;;;4931685;29;20044;-76
2022/07/12 11:08:51;;;;;;;2.15;1.08;;;34.20;42.10;;;;;;4931126;29;20042;-77
2022/07/12 11:11:18;;;;;;;1.40;0.73;;;34.30;41.90;;;;;;4947165;29;20055;-76
2022/07/12 11:13:44;;;;;;;2.08;0.90;;;34.60;41.80;;;;;;4944012;29;20087;-77
2022/07/12 11:16:11;;;;;;;1.38;1.17;;;34.80;41.50;;;;;;4928452;29;20035;-77
2022/07/12 11:18:38;;;;;;;2.15;0.90;;;35.10;41.30;;;;;;4930085;29;20348;-77
2022/07/12 11:21:05;;;;;;;1.73;0.90;;;35.40;41.10;;;;;;4915402;29;20284;-77
2022/07/12 11:23:31;;;;;;;1.23;0.90;;;35.60;40.90;;;;;;4937546;29;20571;-77
2022/07/12 11:26:02;;;;;;;1.42;1.20;;;35.80;40.70;;;;;;4936861;28;20035;-77
2022/07/12 11:28:30;;;;;;;3.40;1.02;;;35.90;40.60;;;;;;4929150;28;20859;-77
2022/07/12 11:31:11;;;;;;;4.70;1.40;;;35.90;40.40;;;;;;4929775;29;20363;-76
2022/07/12 11:33:42;;;;;;;4.10;1.80;;;35.90;39.70;;;;;;4947257;28;20039;-78
2022/07/12 11:36:10;;;;;;;6.32;1.70;;;35.80;39.70;;;;;;4933391;29;20046;-82
2022/07/12 11:38:39;;;;;;;3.15;1.65;;;35.50;39.70;;;;;;4928226;29;20051;-80
2022/07/12 11:41:06;;;;;;;12.85;3.00;;;35.40;39.80;;;;;;4938223;28;20141;-76
2022/07/12 11:43:34;;;;;;;9.18;1.83;;;35.20;39.80;;;;;;4945146;28;20449;-79
2022/07/12 11:46:00;;;;;;;2.80;1.20;;;35.20;39.90;;;;;;4947894;28;20038;-77
2022/07/12 11:48:32;;;;;;;4.40;1.27;;;35.10;39.70;;;;;;4946365;28;20020;-79
2022/07/12 11:51:17;;;;;;;2.83;1.17;;;35.20;39.40;;;;;;4930211;29;20053;-82
2022/07/12 11:53:43;;;;;;;4.03;1.05;;;35.30;39.00;;;;;;4959138;28;20543;-77
2022/07/12 11:56:10;;;;;;;2.85;1.20;;;35.40;38.80;;;;;;4946327;28;20071;-80
2022/07/12 11:58:40;;;;;;;4.85;1.30;;;35.50;38.40;;;;;;4947835;28;20034;-75
2022/07/12 12:01:11;;;;;;;5.10;1.20;;;35.50;38.20;;;;;;4946409;28;20049;-78
2022/07/12 12:03:45;;;;;;;5.72;1.10;;;35.50;38.10;;;;;;4933460;29;20047;-79
2022/07/12 12:06:11;;;;;;;1.38;0.68;;;35.30;38.10;;;;;;4915886;29;20044;-81
2022/07/12 12:08:37;;;;;;;1.58;0.93;;;35.20;38.30;;;;;;4960832;28;20107;-77
2022/07/12 12:11:03;;;;;;;6.53;1.10;;;35.00;38.30;;;;;;4924401;28;20126;-85
2022/07/12 12:13:30;;;;;;;4.80;1.20;;;34.90;38.60;;;;;;4944628;28;20050;-90
2022/07/12 12:16:02;;;;;;;4.38;1.02;;;34.70;38.60;;;;;;4914776;29;20103;-77
2022/07/12 12:18:34;;;;;;;5.15;1.42;;;34.50;38.70;;;;;;4941575;28;20031;-76
2022/07/12 12:21:05;;;;;;;;;;;34.40;38.80;;;;;;4947798;28;20573;-77
2022/07/12 12:23:31;;;;;;;4.30;1.35;;;34.30;39.10;;;;;;4929707;29;19926;-76
2022/07/12 12:26:20;;;;;;;5.40;0.98;;;34.20;39.30;;;;;;4946686;28;20043;-78
2022/07/12 12:28:49;;;;;;;4.85;1.25;;;34.10;39.60;;;;;;4940329;28;20326;-76
2022/07/12 12:31:18;;;;;;;2.85;1.10;;;34.10;39.80;;;;;;4934552;28;20039;-76
2022/07/12 12:33:46;;;;;;;3.28;1.40;;;34.00;39.90;;;;;;4930353;29;20050;-76
2022/07/12 12:36:18;;;;;;;4.43;1.25;;;34.10;40.10;;;;;;4946760;28;20134;-75
2022/07/12 12:38:45;;;;;;;3.42;1.25;;;34.30;40.00;;;;;;4942312;28;20050;-76
2022/07/12 12:41:12;;;;;;;3.22;1.40;;;34.40;39.90;;;;;;4946310;28;20490;-76
2022/07/12 12:43:39;;;;;;;1.70;1.42;;;34.50;39.70;;;;;;4928438;29;20035;-77
2022/07/12 12:46:05;;;;;;;2.50;1.88;;;34.50;39.50;;;;;;4946680;28;20295;-79
2022/07/12 12:48:32;;;;;;;2.97;1.38;;;34.60;39.40;;;;;;4944007;28;20042;-76
2022/07/12 12:51:11;;;;;;;2.92;1.25;;;34.70;39.20;;;;;;4936381;28;20505;-77
2022/07/12 12:53:39;;;;;;;2.83;1.00;;;34.80;39.10;;;;;;4955596;28;20493;-77
2022/07/12 12:56:14;;;;;;;1.75;1.00;;;35.00;39.10;;;;;;4944517;28;20024;-76
2022/07/12 12:58:41;;;;;;;3.85;1.60;;;35.20;38.80;;;;;;4935806;28;20512;-79
2022/07/12 13:01:08;;;;;;;4.00;1.20;;;35.50;38.90;;;;;;4935775;29;20112;-82
2022/07/12 13:03:35;;;;;;;3.92;1.30;;;35.70;38.30;;;;;;4926970;28;20039;-81